createdAt,value
2022-11-01T00:00:50.000Z,17.1
2022-11-01T00:04:22.000Z,21.9
2022-11-01T00:07:55.000Z,21.8
2022-11-01T00:11:28.000Z,21.4
2022-11-01T00:15:02.000Z,21.1
2022-11-01T00:17:53.000Z,19.1
2022-11-01T00:21:25.000Z,19.6
2022-11-01T00:24:59.000Z,22.3
2022-11-01T00:28:32.000Z,22.9
2022-11-01T00:32:04.000Z,20
2022-11-01T00:35:37.000Z,20.3
2022-11-01T00:39:09.000Z,21.7
2022-11-01T00:42:42.000Z,21.5
2022-11-01T00:46:15.000Z,21.4
2022-11-01T00:49:47.000Z,21.7
2022-11-01T00:53:20.000Z,21.7
2022-11-01T00:56:11.000Z,19.7
2022-11-01T00:59:43.000Z,21.5
2022-11-01T01:03:16.000Z,17.8
2022-11-01T01:06:49.000Z,23.1
2022-11-01T01:10:22.000Z,16.6
2022-11-01T01:13:54.000Z,19.5
2022-11-01T01:17:27.000Z,20
2022-11-01T01:20:59.000Z,24.6
2022-11-01T01:24:32.000Z,21
2022-11-01T01:28:05.000Z,16.7
2022-11-01T01:31:37.000Z,19.3
2022-11-01T01:34:29.000Z,22.3
2022-11-01T01:38:01.000Z,16.3
2022-11-01T01:41:34.000Z,16.1
2022-11-01T01:45:06.000Z,21.2
2022-11-01T01:48:39.000Z,18.1
2022-11-01T01:52:12.000Z,18.1
2022-11-01T01:55:44.000Z,14.4
2022-11-01T01:59:17.000Z,16
2022-11-01T02:02:50.000Z,15.7
2022-11-01T02:06:22.000Z,22.1
2022-11-01T02:09:55.000Z,19
2022-11-01T02:12:46.000Z,16.4
2022-11-01T02:16:19.000Z,21
2022-11-01T02:19:51.000Z,23.6
2022-11-01T02:23:24.000Z,18.6
2022-11-01T02:26:57.000Z,16.8
2022-11-01T02:30:29.000Z,21.6
2022-11-01T02:34:02.000Z,22.7
2022-11-01T02:37:34.000Z,18.7
2022-11-01T02:41:07.000Z,20.7
2022-11-01T02:44:40.000Z,19.9
2022-11-01T02:48:12.000Z,15.9
2022-11-01T02:51:03.000Z,14.8
2022-11-01T02:54:36.000Z,27.1
2022-11-01T02:58:09.000Z,15.6
2022-11-01T03:01:41.000Z,16.2
2022-11-01T03:05:14.000Z,19
2022-11-01T03:08:47.000Z,20.6
2022-11-01T03:15:52.000Z,23.1
2022-11-01T03:19:25.000Z,26
2022-11-01T03:22:57.000Z,21.2
2022-11-01T03:26:30.000Z,19.4
2022-11-01T03:29:21.000Z,17.2
2022-11-01T03:32:54.000Z,19.8
2022-11-01T03:36:27.000Z,26.4
2022-11-01T03:40:00.000Z,21.3
2022-11-01T03:43:33.000Z,27.7
2022-11-01T03:47:05.000Z,34
2022-11-01T03:50:38.000Z,31.9
2022-11-01T03:54:11.000Z,30.2
2022-11-01T03:57:43.000Z,30.9
2022-11-01T04:01:16.000Z,26.3
2022-11-01T04:04:49.000Z,37.2
2022-11-01T04:07:40.000Z,30.6
2022-11-01T04:11:13.000Z,33.7
2022-11-01T04:14:45.000Z,30.2
2022-11-01T04:18:18.000Z,34.4
2022-11-01T04:21:51.000Z,38
2022-11-01T04:25:23.000Z,40.8
2022-11-01T04:28:56.000Z,42.8
2022-11-01T04:32:29.000Z,37.6
2022-11-01T04:36:01.000Z,35.5
2022-11-01T04:39:34.000Z,30.5
2022-11-01T04:43:06.000Z,36.7
2022-11-01T04:45:58.000Z,31.3
2022-11-01T04:49:30.000Z,28.8
2022-11-01T04:53:03.000Z,28.8
2022-11-01T04:56:35.000Z,24.5
2022-11-01T05:00:08.000Z,25.4
2022-11-01T05:03:41.000Z,31.9
2022-11-01T05:07:13.000Z,30.2
2022-11-01T05:10:46.000Z,24.2
2022-11-01T05:14:18.000Z,24.8
2022-11-01T05:18:17.000Z,22.9
2022-11-01T05:21:49.000Z,24.9
2022-11-01T05:24:41.000Z,27.8
2022-11-01T05:28:13.000Z,28.4
2022-11-01T05:31:46.000Z,29.9
2022-11-01T05:35:19.000Z,32
2022-11-01T05:38:51.000Z,29.1
2022-11-01T05:42:24.000Z,27.6
2022-11-01T05:45:56.000Z,32.8
2022-11-01T05:49:29.000Z,23.8
2022-11-01T05:53:02.000Z,28.8
2022-11-01T05:56:35.000Z,30.8
2022-11-01T06:00:07.000Z,31.9
2022-11-01T06:02:58.000Z,27.9
2022-11-01T06:06:32.000Z,31.2
2022-11-01T06:10:04.000Z,27.7
2022-11-01T06:13:40.000Z,32.4
2022-11-01T06:17:13.000Z,26
2022-11-01T06:20:45.000Z,27.4
2022-11-01T06:24:18.000Z,32.7
2022-11-01T06:27:50.000Z,30.2
2022-11-01T06:31:24.000Z,32.9
2022-11-01T06:34:56.000Z,31.9
2022-11-01T06:38:29.000Z,29.5
2022-11-01T06:41:21.000Z,28.1
2022-11-01T06:44:53.000Z,26.2
2022-11-01T06:48:26.000Z,25.9
2022-11-01T06:51:58.000Z,20.7
2022-11-01T06:55:31.000Z,20.2
2022-11-01T06:59:04.000Z,21.5
2022-11-01T07:02:36.000Z,20.2
2022-11-01T07:06:10.000Z,14
2022-11-01T07:09:43.000Z,16.4
2022-11-01T07:13:15.000Z,13
2022-11-01T07:16:48.000Z,11
2022-11-01T07:19:39.000Z,12.2
2022-11-01T07:23:12.000Z,10.2
2022-11-01T07:26:45.000Z,11.9
2022-11-01T07:30:17.000Z,11.4
2022-11-01T07:33:50.000Z,11.7
2022-11-01T07:37:23.000Z,9.5
2022-11-01T07:40:55.000Z,9.8
2022-11-01T07:44:28.000Z,9.8
2022-11-01T07:48:01.000Z,13.1
2022-11-01T07:51:33.000Z,17.3
2022-11-01T07:55:06.000Z,14.2
2022-11-01T07:57:57.000Z,16.4
2022-11-01T08:01:30.000Z,14.1
2022-11-01T08:05:04.000Z,18.2
2022-11-01T08:08:37.000Z,13
2022-11-01T08:12:09.000Z,19.9
2022-11-01T08:15:42.000Z,16.3
2022-11-01T08:19:14.000Z,16.6
2022-11-01T08:22:47.000Z,18.9
2022-11-01T08:26:20.000Z,16.7
2022-11-01T08:29:52.000Z,16.5
2022-11-01T08:33:25.000Z,14.9
2022-11-01T08:36:16.000Z,15.8
2022-11-01T08:39:49.000Z,14.5
2022-11-01T08:43:22.000Z,16.7
2022-11-01T08:46:54.000Z,18.1
2022-11-01T08:50:27.000Z,15.2
2022-11-01T08:54:00.000Z,13.8
2022-11-01T08:57:36.000Z,13.3
2022-11-01T09:01:09.000Z,13.8
2022-11-01T09:04:42.000Z,10.4
2022-11-01T09:08:14.000Z,10.7
2022-11-01T09:11:47.000Z,10.4
2022-11-01T09:14:38.000Z,10.2
2022-11-01T09:18:11.000Z,8.2
2022-11-01T09:21:43.000Z,9.3
2022-11-01T09:25:16.000Z,9.6
2022-11-01T09:28:49.000Z,9.2
2022-11-01T09:32:21.000Z,9.7
2022-11-01T09:35:54.000Z,8
2022-11-01T09:39:27.000Z,8.9
2022-11-01T09:43:00.000Z,11.6
2022-11-01T09:46:33.000Z,9.5
2022-11-01T09:50:06.000Z,11.7
2022-11-01T09:52:57.000Z,11.8
2022-11-01T09:56:30.000Z,11.1
2022-11-01T10:00:03.000Z,8.4
2022-11-01T10:03:35.000Z,10.3
2022-11-01T10:07:13.000Z,9.6
2022-11-01T10:10:45.000Z,6.4
2022-11-01T10:14:18.000Z,8.9
2022-11-01T10:17:51.000Z,8.2
2022-11-01T10:21:23.000Z,6.9
2022-11-01T10:24:56.000Z,7.8
2022-11-01T10:28:29.000Z,7.5
2022-11-01T10:31:20.000Z,7.2
2022-11-01T10:34:52.000Z,9.4
2022-11-01T10:38:25.000Z,12.4
2022-11-01T10:42:48.000Z,7
2022-11-01T10:46:21.000Z,8.4
2022-11-01T10:49:53.000Z,7.1
2022-11-01T10:53:33.000Z,7.9
2022-11-01T10:57:05.000Z,7.7
2022-11-01T11:00:38.000Z,6.4
2022-11-01T11:04:11.000Z,6.8
2022-11-01T11:07:44.000Z,7
2022-11-01T11:10:35.000Z,6.6
2022-11-01T11:14:07.000Z,8
2022-11-01T11:17:40.000Z,9.9
2022-11-01T11:21:13.000Z,6.5
2022-11-01T11:24:53.000Z,6.6
2022-11-01T11:28:25.000Z,5.8
2022-11-01T11:31:58.000Z,7
2022-11-01T11:35:31.000Z,6.5
2022-11-01T11:39:03.000Z,5.5
2022-11-01T11:42:36.000Z,40.5
2022-11-01T11:46:09.000Z,7.1
2022-11-01T11:49:00.000Z,10.1
2022-11-01T11:52:32.000Z,7.3
2022-11-01T11:56:05.000Z,8.7
2022-11-01T12:03:11.000Z,8.9
2022-11-01T12:06:44.000Z,7.5
2022-11-01T12:10:17.000Z,6.8
2022-11-01T12:13:49.000Z,6
2022-11-01T12:17:22.000Z,4.6
2022-11-01T12:20:54.000Z,7.6
2022-11-01T12:24:27.000Z,6
2022-11-01T12:27:18.000Z,6.7
2022-11-01T12:30:51.000Z,8.2
2022-11-01T12:34:23.000Z,6.5
2022-11-01T12:37:56.000Z,4.7
2022-11-01T12:41:29.000Z,4.7
2022-11-01T12:45:02.000Z,4.6
2022-11-01T12:48:35.000Z,4
2022-11-01T12:52:08.000Z,3.6
2022-11-01T12:55:40.000Z,5.7
2022-11-01T12:59:13.000Z,2.4
2022-11-01T13:02:46.000Z,4
2022-11-01T13:05:37.000Z,4.7
2022-11-01T13:09:09.000Z,6.5
2022-11-01T13:12:42.000Z,6.3
2022-11-01T13:16:15.000Z,2.6
2022-11-01T13:19:48.000Z,2.8
2022-11-01T13:23:20.000Z,7.1
2022-11-01T13:26:53.000Z,4.2
2022-11-01T13:30:26.000Z,2.7
2022-11-01T13:33:58.000Z,3
2022-11-01T13:37:31.000Z,4.1
2022-11-01T13:41:03.000Z,2.2
2022-11-01T13:43:54.000Z,4.8
2022-11-01T13:47:27.000Z,4.2
2022-11-01T13:51:00.000Z,3.7
2022-11-01T13:54:32.000Z,3
2022-11-01T13:58:05.000Z,5.6
2022-11-01T14:01:38.000Z,4.4
2022-11-01T14:05:10.000Z,3.2
2022-11-01T14:08:43.000Z,5.7
2022-11-01T14:12:16.000Z,6.4
2022-11-01T14:15:48.000Z,3.8
2022-11-01T14:19:21.000Z,6.7
2022-11-01T14:22:12.000Z,4.6
2022-11-01T14:25:44.000Z,3.5
2022-11-01T14:29:17.000Z,3.6
2022-11-01T14:32:50.000Z,2.6
2022-11-01T14:36:22.000Z,4.9
2022-11-01T14:39:55.000Z,6.2
2022-11-01T14:43:27.000Z,3.9
2022-11-01T14:47:00.000Z,3.9
2022-11-01T14:50:33.000Z,6.4
2022-11-01T14:54:05.000Z,3.4
2022-11-01T14:57:38.000Z,4.6
2022-11-01T15:00:30.000Z,7.5
2022-11-01T15:04:03.000Z,4.7
2022-11-01T15:07:35.000Z,5.2
2022-11-01T15:11:08.000Z,6.5
2022-11-01T15:14:46.000Z,5.6
2022-11-01T15:18:18.000Z,4
2022-11-01T15:21:51.000Z,7.6
2022-11-01T15:25:24.000Z,4.8
2022-11-01T15:28:56.000Z,8.7
2022-11-01T15:32:29.000Z,5.3
2022-11-01T15:36:02.000Z,8.9
2022-11-01T15:38:53.000Z,7.9
2022-11-01T15:42:26.000Z,7.4
2022-11-01T15:45:58.000Z,4.6
2022-11-01T15:49:31.000Z,4.2
2022-11-01T15:53:04.000Z,6.8
2022-11-01T15:56:36.000Z,5.2
2022-11-01T16:00:09.000Z,5.7
2022-11-01T16:03:42.000Z,7
2022-11-01T16:07:14.000Z,3.7
2022-11-01T16:10:47.000Z,3.9
2022-11-01T16:14:20.000Z,12.5
2022-11-01T16:17:10.000Z,9.9
2022-11-01T16:20:43.000Z,4.4
2022-11-01T16:24:16.000Z,4.7
2022-11-01T16:27:48.000Z,2.8
2022-11-01T16:31:21.000Z,5.3
2022-11-01T16:34:54.000Z,4.8
2022-11-01T16:38:26.000Z,3.6
2022-11-01T16:41:59.000Z,8.4
2022-11-01T16:45:32.000Z,3.2
2022-11-01T16:49:04.000Z,5
2022-11-01T16:52:37.000Z,4.8
2022-11-01T16:55:28.000Z,4.4
2022-11-01T16:59:02.000Z,4.5
2022-11-01T17:02:35.000Z,6.4
2022-11-01T17:06:07.000Z,5.8
2022-11-01T17:09:40.000Z,4.8
2022-11-01T17:13:13.000Z,4.2
2022-11-01T17:16:45.000Z,10.6
2022-11-01T17:20:22.000Z,7.8
2022-11-01T17:23:55.000Z,6.3
2022-11-01T17:27:28.000Z,5.9
2022-11-01T17:31:00.000Z,4.6
2022-11-01T17:33:51.000Z,3.2
2022-11-01T17:37:25.000Z,5.9
2022-11-01T17:40:58.000Z,3.9
2022-11-01T17:44:30.000Z,6.8
2022-11-01T17:48:03.000Z,4.6
2022-11-01T17:51:36.000Z,5.6
2022-11-01T17:55:08.000Z,7.4
2022-11-01T17:58:41.000Z,5.5
2022-11-01T18:02:17.000Z,8.8
2022-11-01T18:05:50.000Z,7.4
2022-11-01T18:09:23.000Z,6.8
2022-11-01T18:12:14.000Z,7.8
2022-11-01T18:15:46.000Z,9.1
2022-11-01T18:19:19.000Z,8.6
2022-11-01T18:22:52.000Z,5.9
2022-11-01T18:26:24.000Z,4.6
2022-11-01T18:29:57.000Z,9.2
2022-11-01T18:33:29.000Z,9.1
2022-11-01T18:37:02.000Z,5.2
2022-11-01T18:40:35.000Z,8.1
2022-11-01T18:44:07.000Z,10.2
2022-11-01T18:48:10.000Z,11.2
2022-11-01T18:51:01.000Z,10.1
2022-11-01T18:54:33.000Z,8
2022-11-01T18:58:06.000Z,9.9
2022-11-01T19:01:39.000Z,9.2
2022-11-01T19:05:12.000Z,8.7
2022-11-01T19:08:44.000Z,9
2022-11-01T19:12:17.000Z,10.9
2022-11-01T19:15:53.000Z,10.9
2022-11-01T19:19:26.000Z,13.9
2022-11-01T19:22:59.000Z,8.4
2022-11-01T19:26:31.000Z,9.3
2022-11-01T19:29:22.000Z,7.3
2022-11-01T19:32:55.000Z,8.8
2022-11-01T19:36:27.000Z,8.4
2022-11-01T19:40:01.000Z,11.1
2022-11-01T19:43:33.000Z,10.4
2022-11-01T19:47:06.000Z,12.8
2022-11-01T19:50:41.000Z,11.6
2022-11-01T19:54:14.000Z,7.3
2022-11-01T19:57:46.000Z,10.3
2022-11-01T20:01:19.000Z,10
2022-11-01T20:04:52.000Z,10.5
2022-11-01T20:07:43.000Z,14.7
2022-11-01T20:11:16.000Z,10.6
2022-11-01T20:14:48.000Z,14.1
2022-11-01T20:18:21.000Z,12.9
2022-11-01T20:21:53.000Z,9.2
2022-11-01T20:25:26.000Z,11.7
2022-11-01T20:28:58.000Z,5.4
2022-11-01T20:32:31.000Z,9.8
2022-11-01T20:36:04.000Z,9.2
2022-11-01T20:39:36.000Z,8.3
2022-11-01T20:43:09.000Z,9.3
2022-11-01T20:46:00.000Z,9.2
2022-11-01T20:49:33.000Z,9.2
2022-11-01T20:53:05.000Z,12.3
2022-11-01T20:56:38.000Z,9.9
2022-11-01T21:00:10.000Z,8.8
2022-11-01T21:03:43.000Z,13.8
2022-11-01T21:07:16.000Z,14.3
2022-11-01T21:10:49.000Z,11.7
2022-11-01T21:14:21.000Z,14.7
2022-11-01T21:17:54.000Z,7.1
2022-11-01T21:21:27.000Z,7.7
2022-11-01T21:24:18.000Z,8.3
2022-11-01T21:27:50.000Z,13.1
2022-11-01T21:31:23.000Z,7.3
2022-11-01T21:34:56.000Z,9.1
2022-11-01T21:38:28.000Z,10.5
2022-11-01T21:42:05.000Z,10.1
2022-11-01T21:45:37.000Z,10.8
2022-11-01T21:49:10.000Z,14.3
2022-11-01T21:52:43.000Z,13.1
2022-11-01T21:56:15.000Z,9.8
2022-11-01T21:59:48.000Z,9.4
2022-11-01T22:02:39.000Z,7.7
2022-11-01T22:06:12.000Z,7.4
2022-11-01T22:09:44.000Z,8.2
2022-11-01T22:13:22.000Z,9.2
2022-11-01T22:16:55.000Z,7.3
2022-11-01T22:20:27.000Z,10.1
2022-11-01T22:24:00.000Z,12.1
2022-11-01T22:27:32.000Z,8.4
2022-11-01T22:31:05.000Z,9.1
2022-11-01T22:34:38.000Z,10.8
2022-11-01T22:38:10.000Z,8
2022-11-01T22:41:01.000Z,5.7
2022-11-01T22:44:34.000Z,13.6
2022-11-01T22:48:06.000Z,9.5
2022-11-01T22:51:39.000Z,9.8
2022-11-01T22:55:11.000Z,8.5
2022-11-01T22:58:44.000Z,7
2022-11-01T23:02:17.000Z,14.1
2022-11-01T23:05:50.000Z,7.6
2022-11-01T23:09:22.000Z,7.4
2022-11-01T23:12:55.000Z,11.7
2022-11-01T23:16:28.000Z,9
2022-11-01T23:19:19.000Z,9.4
2022-11-01T23:22:52.000Z,6
2022-11-01T23:26:25.000Z,7.9
2022-11-01T23:29:57.000Z,6.9
2022-11-01T23:33:30.000Z,10.8
2022-11-01T23:37:03.000Z,5.6
2022-11-01T23:40:35.000Z,8.3
2022-11-01T23:44:08.000Z,5.9
2022-11-01T23:47:40.000Z,7.6
2022-11-01T23:51:13.000Z,7.7
2022-11-01T23:54:46.000Z,7.8
2022-11-01T23:57:37.000Z,7
